sensor_id;sensor_type;location;lat;lon;timestamp;temperature;humidity
28069;DHT22;15382;47.578;8.086;2023-01-24T00:05:20;2.50;99.90
28069;DHT22;15382;47.578;8.086;2023-01-24T00:15:20;2.50;99.90
28069;DHT22;15382;47.578;8.086;2023-01-24T00:25:22;2.50;99.90
28069;DHT22;15382;47.578;8.086;2023-01-24T00:35:22;2.50;99.90
28069;DHT22;15382;47.578;8.086;2023-01-24T00:45:23;2.50;99.90
28069;DHT22;15382;47.578;8.086;2023-01-24T00:55:24;2.50;99.90
28069;DHT22;15382;47.578;8.086;2023-01-24T01:05:25;2.50;99.90
28069;DHT22;15382;47.578;8.086;2023-01-24T01:15:26;2.40;99.90
28069;DHT22;15382;47.578;8.086;2023-01-24T01:25:26;2.40;99.90
28069;DHT22;15382;47.578;8.086;2023-01-24T01:35:27;2.40;99.90
28069;DHT22;15382;47.578;8.086;2023-01-24T01:45:39;2.40;99.90
28069;DHT22;15382;47.578;8.086;2023-01-24T01:55:44;2.40;99.90
28069;DHT22;15382;47.578;8.086;2023-01-24T02:05:48;2.40;99.90
28069;DHT22;15382;47.578;8.086;2023-01-24T02:15:51;2.40;99.90
28069;DHT22;15382;47.578;8.086;2023-01-24T02:26:13;2.40;99.90
28069;DHT22;15382;47.578;8.086;2023-01-24T02:36:33;2.40;99.90
28069;DHT22;15382;47.578;8.086;2023-01-24T02:46:36;2.40;99.90
28069;DHT22;15382;47.578;8.086;2023-01-24T02:56:37;2.50;99.90
28069;DHT22;15382;47.578;8.086;2023-01-24T03:06:57;2.50;99.90
28069;DHT22;15382;47.578;8.086;2023-01-24T03:16:58;2.40;99.90
28069;DHT22;15382;47.578;8.086;2023-01-24T03:27:18;2.40;99.90
28069;DHT22;15382;47.578;8.086;2023-01-24T03:37:37;2.30;99.90
28069;DHT22;15382;47.578;8.086;2023-01-24T03:48:01;2.40;99.90
28069;DHT22;15382;47.578;8.086;2023-01-24T03:58:05;2.40;99.90
28069;DHT22;15382;47.578;8.086;2023-01-24T04:08:06;2.40;99.90
28069;DHT22;15382;47.578;8.086;2023-01-24T04:18:08;2.40;99.90
28069;DHT22;15382;47.578;8.086;2023-01-24T04:28:09;2.40;99.90
28069;DHT22;15382;47.578;8.086;2023-01-24T04:38:11;2.30;99.90
28069;DHT22;15382;47.578;8.086;2023-01-24T04:48:22;2.30;99.90
28069;DHT22;15382;47.578;8.086;2023-01-24T04:58:24;2.30;99.90
28069;DHT22;15382;47.578;8.086;2023-01-24T05:08:25;2.30;99.90
28069;DHT22;15382;47.578;8.086;2023-01-24T05:18:27;2.40;99.90
28069;DHT22;15382;47.578;8.086;2023-01-24T05:28:28;2.30;99.90
28069;DHT22;15382;47.578;8.086;2023-01-24T05:38:31;2.30;99.90
28069;DHT22;15382;47.578;8.086;2023-01-24T05:48:33;2.30;99.90
28069;DHT22;15382;47.578;8.086;2023-01-24T05:58:36;2.30;99.90
28069;DHT22;15382;47.578;8.086;2023-01-24T06:08:41;2.40;99.90
28069;DHT22;15382;47.578;8.086;2023-01-24T06:18:43;2.40;99.90
28069;DHT22;15382;47.578;8.086;2023-01-24T06:28:44;2.40;99.90
28069;DHT22;15382;47.578;8.086;2023-01-24T06:38:45;2.40;99.90
28069;DHT22;15382;47.578;8.086;2023-01-24T06:48:46;2.40;99.90
28069;DHT22;15382;47.578;8.086;2023-01-24T06:58:48;2.90;99.90
28069;DHT22;15382;47.578;8.086;2023-01-24T07:08:49;2.60;99.90
28069;DHT22;15382;47.578;8.086;2023-01-24T07:18:50;2.50;99.90
28069;DHT22;15382;47.578;8.086;2023-01-24T07:28:51;2.50;99.90
28069;DHT22;15382;47.578;8.086;2023-01-24T07:38:55;2.50;99.90
28069;DHT22;15382;47.578;8.086;2023-01-24T07:48:56;2.50;99.90
28069;DHT22;15382;47.578;8.086;2023-01-24T07:58:57;2.50;99.90
28069;DHT22;15382;47.578;8.086;2023-01-24T08:08:59;2.50;99.90
28069;DHT22;15382;47.578;8.086;2023-01-24T08:19:00;2.50;99.90
28069;DHT22;15382;47.578;8.086;2023-01-24T08:29:00;2.60;99.90
28069;DHT22;15382;47.578;8.086;2023-01-24T08:39:02;2.50;99.90
28069;DHT22;15382;47.578;8.086;2023-01-24T08:49:05;2.60;99.90
28069;DHT22;15382;47.578;8.086;2023-01-24T08:59:05;2.60;99.90
28069;DHT22;15382;47.578;8.086;2023-01-24T09:09:06;2.70;99.90
28069;DHT22;15382;47.578;8.086;2023-01-24T09:19:10;2.70;99.90
28069;DHT22;15382;47.578;8.086;2023-01-24T09:29:11;2.70;99.90
28069;DHT22;15382;47.578;8.086;2023-01-24T09:39:12;2.70;99.90
28069;DHT22;15382;47.578;8.086;2023-01-24T09:59:39;2.80;99.90
28069;DHT22;15382;47.578;8.086;2023-01-24T10:30:44;2.90;99.90
28069;DHT22;15382;47.578;8.086;2023-01-24T10:40:54;3.00;99.90
28069;DHT22;15382;47.578;8.086;2023-01-24T10:51:10;3.00;99.90
28069;DHT22;15382;47.578;8.086;2023-01-24T11:01:18;3.00;99.90
28069;DHT22;15382;47.578;8.086;2023-01-24T11:11:28;3.00;99.90
28069;DHT22;15382;47.578;8.086;2023-01-24T11:21:30;3.10;99.90
28069;DHT22;15382;47.578;8.086;2023-01-24T11:31:36;3.20;99.90
28069;DHT22;15382;47.578;8.086;2023-01-24T11:41:53;3.10;99.90
28069;DHT22;15382;47.578;8.086;2023-01-24T11:51:59;3.20;99.90
28069;DHT22;15382;47.578;8.086;2023-01-24T12:12:37;3.20;99.90
28069;DHT22;15382;47.578;8.086;2023-01-24T12:22:41;3.20;99.90
28069;DHT22;15382;47.578;8.086;2023-01-24T12:32:50;3.20;99.90
28069;DHT22;15382;47.578;8.086;2023-01-24T12:53:14;3.20;99.90
28069;DHT22;15382;47.578;8.086;2023-01-24T13:34:14;3.20;99.90
28069;DHT22;15382;47.578;8.086;2023-01-24T13:44:30;3.20;99.90
28069;DHT22;15382;47.578;8.086;2023-01-24T14:04:39;3.20;99.90
28069;DHT22;15382;47.578;8.086;2023-01-24T14:15:05;3.20;99.90
28069;DHT22;15382;47.578;8.086;2023-01-24T14:25:38;3.20;99.90
28069;DHT22;15382;47.578;8.086;2023-01-24T14:46:27;3.10;99.90
28069;DHT22;15382;47.578;8.086;2023-01-24T14:56:38;3.10;99.90
28069;DHT22;15382;47.578;8.086;2023-01-24T15:06:39;3.10;99.90
28069;DHT22;15382;47.578;8.086;2023-01-24T15:16:56;3.10;99.90
28069;DHT22;15382;47.578;8.086;2023-01-24T15:26:59;3.10;99.90
28069;DHT22;15382;47.578;8.086;2023-01-24T15:37:00;3.00;99.90
28069;DHT22;15382;47.578;8.086;2023-01-24T15:47:01;3.00;99.90
28069;DHT22;15382;47.578;8.086;2023-01-24T15:57:24;2.90;99.90
28069;DHT22;15382;47.578;8.086;2023-01-24T16:07:25;2.90;99.90
28069;DHT22;15382;47.578;8.086;2023-01-24T16:17:26;2.90;99.90
28069;DHT22;15382;47.578;8.086;2023-01-24T16:27:29;2.90;99.90
28069;DHT22;15382;47.578;8.086;2023-01-24T16:37:31;2.80;99.90
28069;DHT22;15382;47.578;8.086;2023-01-24T16:47:32;2.90;99.90
28069;DHT22;15382;47.578;8.086;2023-01-24T16:57:33;2.80;99.90
28069;DHT22;15382;47.578;8.086;2023-01-24T17:07:34;2.80;99.90
28069;DHT22;15382;47.578;8.086;2023-01-24T17:17:35;2.90;99.90
28069;DHT22;15382;47.578;8.086;2023-01-24T17:27:36;2.80;99.90
28069;DHT22;15382;47.578;8.086;2023-01-24T17:37:37;2.80;99.90
28069;DHT22;15382;47.578;8.086;2023-01-24T17:47:38;2.70;99.90
28069;DHT22;15382;47.578;8.086;2023-01-24T17:57:39;2.80;99.90
28069;DHT22;15382;47.578;8.086;2023-01-24T18:07:40;2.80;99.90
28069;DHT22;15382;47.578;8.086;2023-01-24T18:17:41;2.70;99.90
28069;DHT22;15382;47.578;8.086;2023-01-24T18:27:41;2.70;99.90
28069;DHT22;15382;47.578;8.086;2023-01-24T18:37:42;2.70;99.90
28069;DHT22;15382;47.578;8.086;2023-01-24T18:47:43;2.60;99.90
28069;DHT22;15382;47.578;8.086;2023-01-24T18:57:44;2.70;99.90
28069;DHT22;15382;47.578;8.086;2023-01-24T19:07:44;2.70;99.90
28069;DHT22;15382;47.578;8.086;2023-01-24T19:17:49;2.70;99.90
28069;DHT22;15382;47.578;8.086;2023-01-24T19:27:53;2.60;99.90
28069;DHT22;15382;47.578;8.086;2023-01-24T19:37:54;2.60;99.90
28069;DHT22;15382;47.578;8.086;2023-01-24T19:47:55;2.60;99.90
28069;DHT22;15382;47.578;8.086;2023-01-24T19:57:55;2.60;99.90
28069;DHT22;15382;47.578;8.086;2023-01-24T20:07:57;2.60;99.90
28069;DHT22;15382;47.578;8.086;2023-01-24T20:17:58;2.60;99.90
28069;DHT22;15382;47.578;8.086;2023-01-24T20:27:59;2.60;99.90
28069;DHT22;15382;47.578;8.086;2023-01-24T20:38:00;2.60;99.90
28069;DHT22;15382;47.578;8.086;2023-01-24T20:48:00;2.60;99.90
28069;DHT22;15382;47.578;8.086;2023-01-24T20:58:01;2.70;99.90
28069;DHT22;15382;47.578;8.086;2023-01-24T21:08:02;2.70;99.90
28069;DHT22;15382;47.578;8.086;2023-01-24T21:18:03;2.50;99.90
28069;DHT22;15382;47.578;8.086;2023-01-24T21:28:04;2.60;99.90
28069;DHT22;15382;47.578;8.086;2023-01-24T21:38:05;2.60;99.90
28069;DHT22;15382;47.578;8.086;2023-01-24T21:48:06;2.50;99.90
28069;DHT22;15382;47.578;8.086;2023-01-24T21:58:06;2.50;99.90
28069;DHT22;15382;47.578;8.086;2023-01-24T22:08:07;2.50;99.90
28069;DHT22;15382;47.578;8.086;2023-01-24T22:18:10;2.60;99.90
28069;DHT22;15382;47.578;8.086;2023-01-24T22:28:17;2.60;99.90
28069;DHT22;15382;47.578;8.086;2023-01-24T22:38:18;2.60;99.90
28069;DHT22;15382;47.578;8.086;2023-01-24T22:48:26;2.60;99.90
28069;DHT22;15382;47.578;8.086;2023-01-24T22:58:26;2.60;99.90
28069;DHT22;15382;47.578;8.086;2023-01-24T23:08:27;2.50;99.90
28069;DHT22;15382;47.578;8.086;2023-01-24T23:18:28;2.50;99.90
28069;DHT22;15382;47.578;8.086;2023-01-24T23:39:00;2.50;99.90
28069;DHT22;15382;47.578;8.086;2023-01-24T23:49:01;2.50;99.90
28069;DHT22;15382;47.578;8.086;2023-01-24T23:59:01;2.50;99.90
